sensor_id;sensor_type;location;lat;lon;timestamp;temperature;humidity
3602;DHT22;1815;50.950;6.920;2022-07-29T00:00:07;22.30;52.20
3602;DHT22;1815;50.950;6.920;2022-07-29T00:02:34;22.30;52.30
3602;DHT22;1815;50.950;6.920;2022-07-29T00:05:00;22.30;52.40
3602;DHT22;1815;50.950;6.920;2022-07-29T00:07:26;22.30;52.50
3602;DHT22;1815;50.950;6.920;2022-07-29T00:09:52;22.30;52.70
3602;DHT22;1815;50.950;6.920;2022-07-29T00:12:20;22.30;52.80
3602;DHT22;1815;50.950;6.920;2022-07-29T00:14:46;22.30;53.00
3602;DHT22;1815;50.950;6.920;2022-07-29T00:17:12;22.30;53.00
3602;DHT22;1815;50.950;6.920;2022-07-29T00:19:38;22.30;53.20
3602;DHT22;1815;50.950;6.920;2022-07-29T00:22:04;22.30;53.10
3602;DHT22;1815;50.950;6.920;2022-07-29T00:24:30;22.30;53.30
3602;DHT22;1815;50.950;6.920;2022-07-29T00:26:56;22.30;53.30
3602;DHT22;1815;50.950;6.920;2022-07-29T00:29:21;22.30;53.40
3602;DHT22;1815;50.950;6.920;2022-07-29T00:31:47;22.30;53.40
3602;DHT22;1815;50.950;6.920;2022-07-29T00:34:13;22.30;53.70
3602;DHT22;1815;50.950;6.920;2022-07-29T00:36:58;22.30;53.70
3602;DHT22;1815;50.950;6.920;2022-07-29T00:39:23;22.30;53.60
3602;DHT22;1815;50.950;6.920;2022-07-29T00:41:49;22.30;53.60
3602;DHT22;1815;50.950;6.920;2022-07-29T00:44:16;22.30;53.80
3602;DHT22;1815;50.950;6.920;2022-07-29T00:46:41;22.30;53.80
3602;DHT22;1815;50.950;6.920;2022-07-29T00:49:07;22.30;53.90
3602;DHT22;1815;50.950;6.920;2022-07-29T00:51:37;22.30;54.00
3602;DHT22;1815;50.950;6.920;2022-07-29T00:54:04;22.30;54.30
3602;DHT22;1815;50.950;6.920;2022-07-29T00:56:30;22.30;54.20
3602;DHT22;1815;50.950;6.920;2022-07-29T00:58:57;22.30;55.00
3602;DHT22;1815;50.950;6.920;2022-07-29T01:01:23;22.30;54.50
3602;DHT22;1815;50.950;6.920;2022-07-29T01:03:49;22.30;54.60
3602;DHT22;1815;50.950;6.920;2022-07-29T01:06:18;22.30;54.80
3602;DHT22;1815;50.950;6.920;2022-07-29T01:08:45;22.30;54.80
3602;DHT22;1815;50.950;6.920;2022-07-29T01:11:13;22.30;55.60
3602;DHT22;1815;50.950;6.920;2022-07-29T01:13:41;22.30;55.20
3602;DHT22;1815;50.950;6.920;2022-07-29T01:16:15;22.30;55.40
3602;DHT22;1815;50.950;6.920;2022-07-29T01:18:46;22.30;55.60
3602;DHT22;1815;50.950;6.920;2022-07-29T01:26:49;22.30;55.60
3602;DHT22;1815;50.950;6.920;2022-07-29T01:32:14;22.20;56.10
3602;DHT22;1815;50.950;6.920;2022-07-29T01:37:45;22.20;56.00
3602;DHT22;1815;50.950;6.920;2022-07-29T01:43:00;22.20;56.50
3602;DHT22;1815;50.950;6.920;2022-07-29T01:45:41;22.20;56.40
3602;DHT22;1815;50.950;6.920;2022-07-29T01:51:04;22.10;56.60
3602;DHT22;1815;50.950;6.920;2022-07-29T01:56:18;22.10;56.90
3602;DHT22;1815;50.950;6.920;2022-07-29T01:58:47;22.10;56.90
3602;DHT22;1815;50.950;6.920;2022-07-29T02:01:15;22.10;57.20
3602;DHT22;1815;50.950;6.920;2022-07-29T02:03:44;22.10;57.40
3602;DHT22;1815;50.950;6.920;2022-07-29T02:06:11;22.10;57.40
3602;DHT22;1815;50.950;6.920;2022-07-29T02:08:39;22.10;57.40
3602;DHT22;1815;50.950;6.920;2022-07-29T02:11:05;22.10;57.40
3602;DHT22;1815;50.950;6.920;2022-07-29T02:13:34;22.00;57.50
3602;DHT22;1815;50.950;6.920;2022-07-29T02:16:02;22.00;57.80
3602;DHT22;1815;50.950;6.920;2022-07-29T02:18:30;22.00;57.80
3602;DHT22;1815;50.950;6.920;2022-07-29T02:20:58;21.90;57.80
3602;DHT22;1815;50.950;6.920;2022-07-29T02:23:25;21.90;58.00
3602;DHT22;1815;50.950;6.920;2022-07-29T02:25:53;21.80;58.10
3602;DHT22;1815;50.950;6.920;2022-07-29T02:28:20;21.80;58.40
3602;DHT22;1815;50.950;6.920;2022-07-29T02:30:47;21.80;58.60
3602;DHT22;1815;50.950;6.920;2022-07-29T02:33:17;21.70;58.60
3602;DHT22;1815;50.950;6.920;2022-07-29T02:35:45;21.70;58.80
3602;DHT22;1815;50.950;6.920;2022-07-29T02:38:14;21.60;59.60
3602;DHT22;1815;50.950;6.920;2022-07-29T02:41:03;21.60;59.30
3602;DHT22;1815;50.950;6.920;2022-07-29T02:43:30;21.60;59.60
3602;DHT22;1815;50.950;6.920;2022-07-29T02:45:58;21.50;59.60
3602;DHT22;1815;50.950;6.920;2022-07-29T02:48:38;21.50;59.80
3602;DHT22;1815;50.950;6.920;2022-07-29T02:51:10;21.40;60.80
3602;DHT22;1815;50.950;6.920;2022-07-29T02:53:38;21.40;60.60
3602;DHT22;1815;50.950;6.920;2022-07-29T02:56:11;21.40;60.90
3602;DHT22;1815;50.950;6.920;2022-07-29T02:58:41;21.30;61.40
3602;DHT22;1815;50.950;6.920;2022-07-29T03:01:13;21.30;61.70
3602;DHT22;1815;50.950;6.920;2022-07-29T03:03:42;21.20;62.10
3602;DHT22;1815;50.950;6.920;2022-07-29T03:06:10;21.20;62.30
3602;DHT22;1815;50.950;6.920;2022-07-29T03:08:37;21.20;62.70
3602;DHT22;1815;50.950;6.920;2022-07-29T03:11:03;21.10;63.20
3602;DHT22;1815;50.950;6.920;2022-07-29T03:13:30;21.10;63.80
3602;DHT22;1815;50.950;6.920;2022-07-29T03:15:58;21.10;64.20
3602;DHT22;1815;50.950;6.920;2022-07-29T03:18:25;21.10;64.60
3602;DHT22;1815;50.950;6.920;2022-07-29T03:20:51;21.00;64.60
3602;DHT22;1815;50.950;6.920;2022-07-29T03:23:21;21.00;64.90
3602;DHT22;1815;50.950;6.920;2022-07-29T03:25:49;21.00;65.40
3602;DHT22;1815;50.950;6.920;2022-07-29T03:28:14;21.00;65.40
3602;DHT22;1815;50.950;6.920;2022-07-29T03:30:40;21.00;65.50
3602;DHT22;1815;50.950;6.920;2022-07-29T03:33:06;20.90;65.80
3602;DHT22;1815;50.950;6.920;2022-07-29T03:35:32;20.90;66.00
3602;DHT22;1815;50.950;6.920;2022-07-29T03:37:58;20.90;66.40
3602;DHT22;1815;50.950;6.920;2022-07-29T03:40:44;20.80;66.60
3602;DHT22;1815;50.950;6.920;2022-07-29T03:43:12;20.80;67.10
3602;DHT22;1815;50.950;6.920;2022-07-29T03:45:43;20.90;67.20
3602;DHT22;1815;50.950;6.920;2022-07-29T03:48:12;20.80;67.50
3602;DHT22;1815;50.950;6.920;2022-07-29T03:50:39;20.80;67.60
3602;DHT22;1815;50.950;6.920;2022-07-29T03:53:05;20.80;67.60
3602;DHT22;1815;50.950;6.920;2022-07-29T03:55:36;20.90;67.90
3602;DHT22;1815;50.950;6.920;2022-07-29T03:58:03;20.90;68.10
3602;DHT22;1815;50.950;6.920;2022-07-29T04:00:30;20.90;68.80
3602;DHT22;1815;50.950;6.920;2022-07-29T04:02:57;20.90;67.90
3602;DHT22;1815;50.950;6.920;2022-07-29T04:05:23;20.90;68.20
3602;DHT22;1815;50.950;6.920;2022-07-29T04:07:48;20.90;68.10
3602;DHT22;1815;50.950;6.920;2022-07-29T04:10:17;20.90;68.30
3602;DHT22;1815;50.950;6.920;2022-07-29T04:12:44;20.90;68.50
3602;DHT22;1815;50.950;6.920;2022-07-29T04:15:10;20.90;68.50
3602;DHT22;1815;50.950;6.920;2022-07-29T04:17:36;20.90;68.80
3602;DHT22;1815;50.950;6.920;2022-07-29T04:20:03;20.90;69.20
3602;DHT22;1815;50.950;6.920;2022-07-29T04:22:30;20.90;69.00
3602;DHT22;1815;50.950;6.920;2022-07-29T04:24:56;20.90;69.10
3602;DHT22;1815;50.950;6.920;2022-07-29T04:27:22;20.90;69.30
3602;DHT22;1815;50.950;6.920;2022-07-29T04:29:47;20.90;69.50
3602;DHT22;1815;50.950;6.920;2022-07-29T04:32:13;20.90;69.40
3602;DHT22;1815;50.950;6.920;2022-07-29T04:34:39;21.00;69.60
3602;DHT22;1815;50.950;6.920;2022-07-29T04:37:05;21.00;69.80
3602;DHT22;1815;50.950;6.920;2022-07-29T04:39:30;21.00;70.00
3602;DHT22;1815;50.950;6.920;2022-07-29T04:41:56;21.00;70.00
3602;DHT22;1815;50.950;6.920;2022-07-29T04:44:22;21.00;70.40
3602;DHT22;1815;50.950;6.920;2022-07-29T04:46:48;21.00;70.80
3602;DHT22;1815;50.950;6.920;2022-07-29T04:49:14;21.00;70.70
3602;DHT22;1815;50.950;6.920;2022-07-29T04:51:39;21.00;70.70
3602;DHT22;1815;50.950;6.920;2022-07-29T04:54:05;21.10;71.70
3602;DHT22;1815;50.950;6.920;2022-07-29T04:56:31;21.10;70.90
3602;DHT22;1815;50.950;6.920;2022-07-29T04:58:57;21.10;71.00
3602;DHT22;1815;50.950;6.920;2022-07-29T05:01:23;21.20;71.10
3602;DHT22;1815;50.950;6.920;2022-07-29T05:03:48;21.20;71.20
3602;DHT22;1815;50.950;6.920;2022-07-29T05:06:14;21.20;71.40
3602;DHT22;1815;50.950;6.920;2022-07-29T05:08:40;21.30;71.60
3602;DHT22;1815;50.950;6.920;2022-07-29T05:11:06;21.30;71.50
3602;DHT22;1815;50.950;6.920;2022-07-29T05:13:32;21.40;71.70
3602;DHT22;1815;50.950;6.920;2022-07-29T05:15:58;21.40;71.60
3602;DHT22;1815;50.950;6.920;2022-07-29T05:18:24;21.40;71.70
3602;DHT22;1815;50.950;6.920;2022-07-29T05:20:50;21.50;71.60
3602;DHT22;1815;50.950;6.920;2022-07-29T05:23:17;21.50;71.40
3602;DHT22;1815;50.950;6.920;2022-07-29T05:25:43;21.50;71.50
3602;DHT22;1815;50.950;6.920;2022-07-29T05:28:09;21.60;71.80
3602;DHT22;1815;50.950;6.920;2022-07-29T05:30:35;21.60;72.00
3602;DHT22;1815;50.950;6.920;2022-07-29T05:33:01;21.70;72.10
3602;DHT22;1815;50.950;6.920;2022-07-29T05:35:27;21.80;72.00
3602;DHT22;1815;50.950;6.920;2022-07-29T05:37:53;21.80;72.20
3602;DHT22;1815;50.950;6.920;2022-07-29T05:40:19;21.90;72.40
3602;DHT22;1815;50.950;6.920;2022-07-29T05:42:45;22.00;72.30
3602;DHT22;1815;50.950;6.920;2022-07-29T05:45:11;22.00;72.20
3602;DHT22;1815;50.950;6.920;2022-07-29T05:47:37;22.10;72.20
3602;DHT22;1815;50.950;6.920;2022-07-29T05:50:03;22.10;72.10
3602;DHT22;1815;50.950;6.920;2022-07-29T05:52:29;22.20;72.10
3602;DHT22;1815;50.950;6.920;2022-07-29T05:54:55;22.20;72.10
3602;DHT22;1815;50.950;6.920;2022-07-29T05:57:23;22.30;72.10
3602;DHT22;1815;50.950;6.920;2022-07-29T05:59:51;22.30;71.70
3602;DHT22;1815;50.950;6.920;2022-07-29T06:02:17;22.40;71.60
3602;DHT22;1815;50.950;6.920;2022-07-29T06:04:43;22.40;71.80
3602;DHT22;1815;50.950;6.920;2022-07-29T06:07:09;22.40;72.50
3602;DHT22;1815;50.950;6.920;2022-07-29T06:09:34;22.50;71.50
3602;DHT22;1815;50.950;6.920;2022-07-29T06:12:00;22.50;71.40
3602;DHT22;1815;50.950;6.920;2022-07-29T06:14:26;22.60;71.40
3602;DHT22;1815;50.950;6.920;2022-07-29T06:16:54;22.70;71.50
3602;DHT22;1815;50.950;6.920;2022-07-29T06:19:20;22.70;70.90
3602;DHT22;1815;50.950;6.920;2022-07-29T06:21:46;22.70;70.80
3602;DHT22;1815;50.950;6.920;2022-07-29T06:24:13;22.80;70.80
3602;DHT22;1815;50.950;6.920;2022-07-29T06:26:40;22.80;70.70
3602;DHT22;1815;50.950;6.920;2022-07-29T06:29:06;22.80;70.60
3602;DHT22;1815;50.950;6.920;2022-07-29T06:31:32;22.80;70.30
3602;DHT22;1815;50.950;6.920;2022-07-29T06:33:58;22.80;70.30
3602;DHT22;1815;50.950;6.920;2022-07-29T06:36:24;22.90;70.30
3602;DHT22;1815;50.950;6.920;2022-07-29T06:38:51;22.90;70.30
3602;DHT22;1815;50.950;6.920;2022-07-29T06:41:17;22.80;70.30
3602;DHT22;1815;50.950;6.920;2022-07-29T06:43:44;22.80;70.40
3602;DHT22;1815;50.950;6.920;2022-07-29T06:46:13;22.80;70.70
3602;DHT22;1815;50.950;6.920;2022-07-29T06:48:40;22.70;70.60
3602;DHT22;1815;50.950;6.920;2022-07-29T06:51:08;22.70;70.80
3602;DHT22;1815;50.950;6.920;2022-07-29T06:53:35;22.60;70.80
3602;DHT22;1815;50.950;6.920;2022-07-29T06:56:02;22.60;71.10
3602;DHT22;1815;50.950;6.920;2022-07-29T06:58:29;22.50;71.10
3602;DHT22;1815;50.950;6.920;2022-07-29T07:01:01;22.50;71.10
3602;DHT22;1815;50.950;6.920;2022-07-29T07:03:27;22.50;71.50
3602;DHT22;1815;50.950;6.920;2022-07-29T07:05:54;22.50;71.70
3602;DHT22;1815;50.950;6.920;2022-07-29T07:08:21;22.50;72.20
3602;DHT22;1815;50.950;6.920;2022-07-29T07:10:47;22.40;73.90
3602;DHT22;1815;50.950;6.920;2022-07-29T07:13:13;22.40;74.10
3602;DHT22;1815;50.950;6.920;2022-07-29T07:15:40;22.40;75.00
3602;DHT22;1815;50.950;6.920;2022-07-29T07:18:06;22.40;76.20
3602;DHT22;1815;50.950;6.920;2022-07-29T07:20:33;22.30;77.10
3602;DHT22;1815;50.950;6.920;2022-07-29T07:22:59;22.40;78.20
3602;DHT22;1815;50.950;6.920;2022-07-29T07:25:27;22.40;79.00
3602;DHT22;1815;50.950;6.920;2022-07-29T07:27:53;22.40;79.70
3602;DHT22;1815;50.950;6.920;2022-07-29T07:30:18;22.40;79.60
3602;DHT22;1815;50.950;6.920;2022-07-29T07:32:44;22.40;80.90
3602;DHT22;1815;50.950;6.920;2022-07-29T07:35:10;22.40;80.90
3602;DHT22;1815;50.950;6.920;2022-07-29T07:37:37;22.40;81.50
3602;DHT22;1815;50.950;6.920;2022-07-29T07:40:04;22.50;82.20
3602;DHT22;1815;50.950;6.920;2022-07-29T07:42:30;22.50;82.50
3602;DHT22;1815;50.950;6.920;2022-07-29T07:44:55;22.50;82.80
3602;DHT22;1815;50.950;6.920;2022-07-29T07:47:21;22.50;83.00
3602;DHT22;1815;50.950;6.920;2022-07-29T07:49:49;22.50;83.40
3602;DHT22;1815;50.950;6.920;2022-07-29T07:52:17;22.40;83.70
3602;DHT22;1815;50.950;6.920;2022-07-29T07:54:43;22.40;84.30
3602;DHT22;1815;50.950;6.920;2022-07-29T07:57:13;22.40;84.30
3602;DHT22;1815;50.950;6.920;2022-07-29T07:59:40;22.30;85.10
3602;DHT22;1815;50.950;6.920;2022-07-29T08:02:06;22.40;85.00
3602;DHT22;1815;50.950;6.920;2022-07-29T08:04:32;22.30;85.40
3602;DHT22;1815;50.950;6.920;2022-07-29T08:06:59;22.40;86.10
3602;DHT22;1815;50.950;6.920;2022-07-29T08:09:26;22.40;86.80
3602;DHT22;1815;50.950;6.920;2022-07-29T08:11:53;22.40;87.30
3602;DHT22;1815;50.950;6.920;2022-07-29T08:14:19;22.40;87.80
3602;DHT22;1815;50.950;6.920;2022-07-29T08:16:44;22.40;88.60
3602;DHT22;1815;50.950;6.920;2022-07-29T08:19:11;22.50;88.90
3602;DHT22;1815;50.950;6.920;2022-07-29T08:21:37;22.50;89.20
3602;DHT22;1815;50.950;6.920;2022-07-29T08:24:03;22.50;89.30
3602;DHT22;1815;50.950;6.920;2022-07-29T08:26:47;22.50;89.60
3602;DHT22;1815;50.950;6.920;2022-07-29T08:29:13;22.50;89.10
3602;DHT22;1815;50.950;6.920;2022-07-29T08:31:39;22.50;89.50
3602;DHT22;1815;50.950;6.920;2022-07-29T08:34:05;22.50;89.40
3602;DHT22;1815;50.950;6.920;2022-07-29T08:36:33;22.50;89.10
3602;DHT22;1815;50.950;6.920;2022-07-29T08:38:59;22.50;89.40
3602;DHT22;1815;50.950;6.920;2022-07-29T08:41:25;22.60;90.00
3602;DHT22;1815;50.950;6.920;2022-07-29T08:43:51;22.60;90.30
3602;DHT22;1815;50.950;6.920;2022-07-29T08:46:18;22.60;90.40
3602;DHT22;1815;50.950;6.920;2022-07-29T08:48:44;22.70;90.80
3602;DHT22;1815;50.950;6.920;2022-07-29T08:51:17;22.80;90.90
3602;DHT22;1815;50.950;6.920;2022-07-29T08:53:45;22.80;91.10
3602;DHT22;1815;50.950;6.920;2022-07-29T08:56:15;22.90;91.30
3602;DHT22;1815;50.950;6.920;2022-07-29T08:58:46;23.00;91.60
3602;DHT22;1815;50.950;6.920;2022-07-29T09:01:14;23.10;91.50
3602;DHT22;1815;50.950;6.920;2022-07-29T09:03:43;23.20;91.50
3602;DHT22;1815;50.950;6.920;2022-07-29T09:06:13;23.30;91.50
3602;DHT22;1815;50.950;6.920;2022-07-29T09:08:39;23.50;91.60
3602;DHT22;1815;50.950;6.920;2022-07-29T09:11:06;23.50;91.50
3602;DHT22;1815;50.950;6.920;2022-07-29T09:13:33;23.60;91.60
3602;DHT22;1815;50.950;6.920;2022-07-29T09:15:59;23.60;91.60
3602;DHT22;1815;50.950;6.920;2022-07-29T09:18:44;23.60;91.60
3602;DHT22;1815;50.950;6.920;2022-07-29T09:21:12;23.60;91.50
3602;DHT22;1815;50.950;6.920;2022-07-29T09:24:12;23.60;91.40
3602;DHT22;1815;50.950;6.920;2022-07-29T09:26:40;23.50;91.70
3602;DHT22;1815;50.950;6.920;2022-07-29T09:29:14;23.50;91.70
3602;DHT22;1815;50.950;6.920;2022-07-29T09:31:42;23.50;92.00
3602;DHT22;1815;50.950;6.920;2022-07-29T09:34:10;23.60;92.10
3602;DHT22;1815;50.950;6.920;2022-07-29T09:36:40;23.60;92.30
3602;DHT22;1815;50.950;6.920;2022-07-29T09:39:07;23.80;92.80
3602;DHT22;1815;50.950;6.920;2022-07-29T09:41:50;24.00;93.10
3602;DHT22;1815;50.950;6.920;2022-07-29T09:44:18;24.20;93.00
3602;DHT22;1815;50.950;6.920;2022-07-29T09:47:01;24.50;93.00
3602;DHT22;1815;50.950;6.920;2022-07-29T09:49:35;24.80;92.50
3602;DHT22;1815;50.950;6.920;2022-07-29T09:52:07;25.10;92.30
3602;DHT22;1815;50.950;6.920;2022-07-29T09:54:33;25.40;91.70
3602;DHT22;1815;50.950;6.920;2022-07-29T09:57:07;25.60;91.50
3602;DHT22;1815;50.950;6.920;2022-07-29T09:59:35;25.80;91.00
3602;DHT22;1815;50.950;6.920;2022-07-29T10:02:01;26.00;90.60
3602;DHT22;1815;50.950;6.920;2022-07-29T10:04:40;26.10;90.20
3602;DHT22;1815;50.950;6.920;2022-07-29T10:07:06;26.20;89.60
3602;DHT22;1815;50.950;6.920;2022-07-29T10:09:32;26.30;88.90
3602;DHT22;1815;50.950;6.920;2022-07-29T10:12:12;26.30;88.00
3602;DHT22;1815;50.950;6.920;2022-07-29T10:14:40;26.40;87.60
3602;DHT22;1815;50.950;6.920;2022-07-29T10:17:08;26.50;86.80
3602;DHT22;1815;50.950;6.920;2022-07-29T10:19:36;26.50;86.60
3602;DHT22;1815;50.950;6.920;2022-07-29T10:22:04;26.50;85.90
3602;DHT22;1815;50.950;6.920;2022-07-29T10:24:31;26.50;85.80
3602;DHT22;1815;50.950;6.920;2022-07-29T10:27:00;26.60;86.10
3602;DHT22;1815;50.950;6.920;2022-07-29T10:29:27;26.70;86.50
3602;DHT22;1815;50.950;6.920;2022-07-29T10:32:36;26.80;86.30
3602;DHT22;1815;50.950;6.920;2022-07-29T10:40:40;27.10;84.20
3602;DHT22;1815;50.950;6.920;2022-07-29T10:43:33;27.30;84.70
3602;DHT22;1815;50.950;6.920;2022-07-29T10:46:02;27.80;85.50
3602;DHT22;1815;50.950;6.920;2022-07-29T10:48:28;28.40;87.50
3602;DHT22;1815;50.950;6.920;2022-07-29T10:51:02;29.10;86.90
3602;DHT22;1815;50.950;6.920;2022-07-29T10:53:51;29.80;85.10
3602;DHT22;1815;50.950;6.920;2022-07-29T10:56:25;30.40;84.00
3602;DHT22;1815;50.950;6.920;2022-07-29T11:01:44;31.30;76.30
3602;DHT22;1815;50.950;6.920;2022-07-29T11:04:09;31.60;76.10
3602;DHT22;1815;50.950;6.920;2022-07-29T11:09:27;32.20;73.20
3602;DHT22;1815;50.950;6.920;2022-07-29T11:11:56;32.60;71.40
3602;DHT22;1815;50.950;6.920;2022-07-29T11:17:19;33.20;64.60
3602;DHT22;1815;50.950;6.920;2022-07-29T11:19:44;33.60;65.30
3602;DHT22;1815;50.950;6.920;2022-07-29T11:22:12;33.80;63.90
3602;DHT22;1815;50.950;6.920;2022-07-29T11:25:15;34.10;61.90
3602;DHT22;1815;50.950;6.920;2022-07-29T11:27:42;34.20;60.40
3602;DHT22;1815;50.950;6.920;2022-07-29T11:30:08;34.40;59.00
3602;DHT22;1815;50.950;6.920;2022-07-29T11:32:44;34.50;58.00
3602;DHT22;1815;50.950;6.920;2022-07-29T11:37:36;34.90;57.80
3602;DHT22;1815;50.950;6.920;2022-07-29T11:47:35;35.20;53.40
3602;DHT22;1815;50.950;6.920;2022-07-29T11:50:04;35.10;52.10
3602;DHT22;1815;50.950;6.920;2022-07-29T11:52:42;35.00;52.30
3602;DHT22;1815;50.950;6.920;2022-07-29T11:55:15;34.90;51.50
3602;DHT22;1815;50.950;6.920;2022-07-29T11:57:55;34.90;51.20
3602;DHT22;1815;50.950;6.920;2022-07-29T12:00:24;34.70;50.10
3602;DHT22;1815;50.950;6.920;2022-07-29T12:02:50;34.50;50.20
3602;DHT22;1815;50.950;6.920;2022-07-29T12:05:16;34.20;49.70
3602;DHT22;1815;50.950;6.920;2022-07-29T12:07:42;34.00;50.60
3602;DHT22;1815;50.950;6.920;2022-07-29T12:10:08;33.80;50.20
3602;DHT22;1815;50.950;6.920;2022-07-29T12:12:35;33.70;50.40
3602;DHT22;1815;50.950;6.920;2022-07-29T12:15:17;33.60;50.30
3602;DHT22;1815;50.950;6.920;2022-07-29T12:17:45;33.50;49.30
3602;DHT22;1815;50.950;6.920;2022-07-29T12:20:11;33.30;49.50
3602;DHT22;1815;50.950;6.920;2022-07-29T12:22:40;33.10;49.30
3602;DHT22;1815;50.950;6.920;2022-07-29T12:25:09;32.90;49.00
3602;DHT22;1815;50.950;6.920;2022-07-29T12:27:36;32.60;48.90
3602;DHT22;1815;50.950;6.920;2022-07-29T12:30:12;32.40;48.70
3602;DHT22;1815;50.950;6.920;2022-07-29T12:32:43;32.20;49.20
3602;DHT22;1815;50.950;6.920;2022-07-29T12:35:14;32.10;49.60
3602;DHT22;1815;50.950;6.920;2022-07-29T12:37:42;32.00;49.60
3602;DHT22;1815;50.950;6.920;2022-07-29T12:40:11;32.00;49.70
3602;DHT22;1815;50.950;6.920;2022-07-29T12:42:39;31.90;49.40
3602;DHT22;1815;50.950;6.920;2022-07-29T12:45:05;31.90;49.20
3602;DHT22;1815;50.950;6.920;2022-07-29T12:47:32;31.90;49.30
3602;DHT22;1815;50.950;6.920;2022-07-29T12:50:12;31.90;49.30
3602;DHT22;1815;50.950;6.920;2022-07-29T12:52:40;31.90;48.40
3602;DHT22;1815;50.950;6.920;2022-07-29T12:55:06;31.90;48.40
3602;DHT22;1815;50.950;6.920;2022-07-29T12:57:45;31.80;48.10
3602;DHT22;1815;50.950;6.920;2022-07-29T13:00:12;31.60;47.70
3602;DHT22;1815;50.950;6.920;2022-07-29T13:02:40;31.50;47.90
3602;DHT22;1815;50.950;6.920;2022-07-29T13:05:07;31.40;48.00
3602;DHT22;1815;50.950;6.920;2022-07-29T13:07:34;31.30;47.70
3602;DHT22;1815;50.950;6.920;2022-07-29T13:10:16;31.10;47.60
3602;DHT22;1815;50.950;6.920;2022-07-29T13:13:05;30.90;47.50
3602;DHT22;1815;50.950;6.920;2022-07-29T13:15:32;30.80;48.10
3602;DHT22;1815;50.950;6.920;2022-07-29T13:17:58;30.80;48.10
3602;DHT22;1815;50.950;6.920;2022-07-29T13:20:26;30.80;48.20
3602;DHT22;1815;50.950;6.920;2022-07-29T13:22:58;30.70;48.50
3602;DHT22;1815;50.950;6.920;2022-07-29T13:25:32;30.80;48.90
3602;DHT22;1815;50.950;6.920;2022-07-29T13:27:59;30.70;48.40
3602;DHT22;1815;50.950;6.920;2022-07-29T13:30:25;30.60;48.70
3602;DHT22;1815;50.950;6.920;2022-07-29T13:32:52;30.50;49.20
3602;DHT22;1815;50.950;6.920;2022-07-29T13:35:19;30.50;49.60
3602;DHT22;1815;50.950;6.920;2022-07-29T13:37:46;30.50;50.00
3602;DHT22;1815;50.950;6.920;2022-07-29T13:40:13;30.40;49.80
3602;DHT22;1815;50.950;6.920;2022-07-29T13:42:39;30.30;50.00
3602;DHT22;1815;50.950;6.920;2022-07-29T13:45:07;30.20;50.10
3602;DHT22;1815;50.950;6.920;2022-07-29T13:47:33;30.20;50.30
3602;DHT22;1815;50.950;6.920;2022-07-29T13:50:00;30.10;50.30
3602;DHT22;1815;50.950;6.920;2022-07-29T13:52:27;30.10;50.50
3602;DHT22;1815;50.950;6.920;2022-07-29T13:54:53;30.10;50.60
3602;DHT22;1815;50.950;6.920;2022-07-29T13:57:20;30.20;50.40
3602;DHT22;1815;50.950;6.920;2022-07-29T13:59:45;30.00;50.80
3602;DHT22;1815;50.950;6.920;2022-07-29T14:02:11;30.00;50.30
3602;DHT22;1815;50.950;6.920;2022-07-29T14:04:37;30.00;50.30
3602;DHT22;1815;50.950;6.920;2022-07-29T14:07:03;29.90;50.30
3602;DHT22;1815;50.950;6.920;2022-07-29T14:09:29;29.80;50.00
3602;DHT22;1815;50.950;6.920;2022-07-29T14:11:56;29.70;50.10
3602;DHT22;1815;50.950;6.920;2022-07-29T14:14:21;29.60;50.10
3602;DHT22;1815;50.950;6.920;2022-07-29T14:16:47;29.60;50.90
3602;DHT22;1815;50.950;6.920;2022-07-29T14:19:13;29.60;50.30
3602;DHT22;1815;50.950;6.920;2022-07-29T14:21:39;29.50;50.30
3602;DHT22;1815;50.950;6.920;2022-07-29T14:24:05;29.50;50.30
3602;DHT22;1815;50.950;6.920;2022-07-29T14:26:31;29.40;50.00
3602;DHT22;1815;50.950;6.920;2022-07-29T14:28:57;29.40;50.30
3602;DHT22;1815;50.950;6.920;2022-07-29T14:31:23;29.40;50.50
3602;DHT22;1815;50.950;6.920;2022-07-29T14:33:48;29.30;50.80
3602;DHT22;1815;50.950;6.920;2022-07-29T14:36:14;29.30;51.00
3602;DHT22;1815;50.950;6.920;2022-07-29T14:38:40;29.30;51.20
3602;DHT22;1815;50.950;6.920;2022-07-29T14:41:06;29.30;51.10
3602;DHT22;1815;50.950;6.920;2022-07-29T14:43:33;29.30;51.20
3602;DHT22;1815;50.950;6.920;2022-07-29T14:46:00;29.30;51.30
3602;DHT22;1815;50.950;6.920;2022-07-29T14:48:26;29.30;51.40
3602;DHT22;1815;50.950;6.920;2022-07-29T14:50:52;29.40;51.40
3602;DHT22;1815;50.950;6.920;2022-07-29T14:53:18;29.30;51.40
3602;DHT22;1815;50.950;6.920;2022-07-29T14:55:44;29.40;51.40
3602;DHT22;1815;50.950;6.920;2022-07-29T14:58:09;29.40;51.40
3602;DHT22;1815;50.950;6.920;2022-07-29T15:00:35;29.40;51.30
3602;DHT22;1815;50.950;6.920;2022-07-29T15:03:03;29.40;51.10
3602;DHT22;1815;50.950;6.920;2022-07-29T15:05:32;29.50;51.10
3602;DHT22;1815;50.950;6.920;2022-07-29T15:07:59;29.40;51.40
3602;DHT22;1815;50.950;6.920;2022-07-29T15:10:25;29.40;50.80
3602;DHT22;1815;50.950;6.920;2022-07-29T15:12:53;29.40;50.80
3602;DHT22;1815;50.950;6.920;2022-07-29T15:15:19;29.40;51.00
3602;DHT22;1815;50.950;6.920;2022-07-29T15:17:45;29.40;50.80
3602;DHT22;1815;50.950;6.920;2022-07-29T15:20:12;29.30;50.40
3602;DHT22;1815;50.950;6.920;2022-07-29T15:22:38;29.30;50.40
3602;DHT22;1815;50.950;6.920;2022-07-29T15:25:05;29.20;50.20
3602;DHT22;1815;50.950;6.920;2022-07-29T15:27:31;29.20;50.10
3602;DHT22;1815;50.950;6.920;2022-07-29T15:29:56;29.20;50.20
3602;DHT22;1815;50.950;6.920;2022-07-29T15:32:23;29.10;50.50
3602;DHT22;1815;50.950;6.920;2022-07-29T15:34:48;29.10;50.70
3602;DHT22;1815;50.950;6.920;2022-07-29T15:37:14;29.20;50.90
3602;DHT22;1815;50.950;6.920;2022-07-29T15:39:40;29.20;51.00
3602;DHT22;1815;50.950;6.920;2022-07-29T15:42:06;29.20;50.70
3602;DHT22;1815;50.950;6.920;2022-07-29T15:44:33;29.20;50.50
3602;DHT22;1815;50.950;6.920;2022-07-29T15:46:58;29.30;50.60
3602;DHT22;1815;50.950;6.920;2022-07-29T15:49:33;29.30;50.50
3602;DHT22;1815;50.950;6.920;2022-07-29T15:52:05;29.30;50.40
3602;DHT22;1815;50.950;6.920;2022-07-29T15:54:35;29.30;50.30
3602;DHT22;1815;50.950;6.920;2022-07-29T15:57:03;29.30;50.00
3602;DHT22;1815;50.950;6.920;2022-07-29T15:59:29;29.20;50.00
3602;DHT22;1815;50.950;6.920;2022-07-29T16:01:54;29.20;49.80
3602;DHT22;1815;50.950;6.920;2022-07-29T16:04:21;29.10;49.70
3602;DHT22;1815;50.950;6.920;2022-07-29T16:06:48;29.00;49.50
3602;DHT22;1815;50.950;6.920;2022-07-29T16:09:15;28.90;49.60
3602;DHT22;1815;50.950;6.920;2022-07-29T16:11:41;28.80;49.80
3602;DHT22;1815;50.950;6.920;2022-07-29T16:14:08;28.80;49.90
3602;DHT22;1815;50.950;6.920;2022-07-29T16:16:35;28.60;49.80
3602;DHT22;1815;50.950;6.920;2022-07-29T16:19:01;28.60;49.50
3602;DHT22;1815;50.950;6.920;2022-07-29T16:21:27;28.50;50.00
3602;DHT22;1815;50.950;6.920;2022-07-29T16:23:53;28.40;49.30
3602;DHT22;1815;50.950;6.920;2022-07-29T16:26:19;28.40;49.20
3602;DHT22;1815;50.950;6.920;2022-07-29T16:28:45;28.40;49.20
3602;DHT22;1815;50.950;6.920;2022-07-29T16:31:11;28.40;49.10
3602;DHT22;1815;50.950;6.920;2022-07-29T16:33:38;28.40;48.80
3602;DHT22;1815;50.950;6.920;2022-07-29T16:36:04;28.30;48.70
3602;DHT22;1815;50.950;6.920;2022-07-29T16:38:30;28.20;48.60
3602;DHT22;1815;50.950;6.920;2022-07-29T16:40:56;28.20;48.60
3602;DHT22;1815;50.950;6.920;2022-07-29T16:43:21;28.20;48.50
3602;DHT22;1815;50.950;6.920;2022-07-29T16:45:47;28.10;48.60
3602;DHT22;1815;50.950;6.920;2022-07-29T16:48:13;28.00;48.50
3602;DHT22;1815;50.950;6.920;2022-07-29T16:50:40;28.00;48.70